Time;durP1;ratioP1;P1;durP2;ratioP2;P2;SDS_P1;SDS_P2;PMS_P1;PMS_P2;Temp;Humidity;BMP_temperature;BMP_pressure;BME280_temperature;BME280_humidity;BME280_pressure;Samples;Min_cycle;Max_cycle;Signal;HPM_P1;HPM_P2
2021/03/02 00:01:34;;;;;;;21.17;9.05;;;2.80;99.90;;;;;;4982977;28;20034;-72
2021/03/02 00:04:01;;;;;;;20.50;8.43;;;2.80;99.90;;;;;;4982907;28;20034;-73
2021/03/02 00:06:27;;;;;;;20.75;8.43;;;2.80;99.90;;;;;;4986786;28;20037;-72
2021/03/02 00:08:53;;;;;;;20.10;9.30;;;2.70;99.90;;;;;;4986629;28;20022;-72
2021/03/02 00:11:19;;;;;;;17.05;8.13;;;2.60;99.90;;;;;;4986679;28;20033;-72
2021/03/02 00:13:44;;;;;;;24.88;9.63;;;2.60;99.90;;;;;;4985466;28;20611;-73
2021/03/02 00:16:11;;;;;;;17.92;8.05;;;2.70;99.90;;;;;;4988274;28;20034;-73
2021/03/02 00:18:45;;;;;;;19.30;8.63;;;2.70;99.90;;;;;;4984416;28;20506;-73
2021/03/02 00:21:16;;;;;;;17.52;8.02;;;2.70;99.90;;;;;;4983769;28;20432;-72
2021/03/02 00:23:43;;;;;;;16.63;8.82;;;2.80;99.90;;;;;;4983890;28;20042;-73
2021/03/02 00:26:11;;;;;;;22.40;7.82;;;2.70;99.90;;;;;;4985831;28;20034;-72
2021/03/02 00:28:39;;;;;;;17.02;8.18;;;2.40;99.90;;;;;;4987653;28;20671;-72
2021/03/02 00:31:06;;;;;;;21.83;9.30;;;2.50;99.90;;;;;;4984734;28;20102;-72
2021/03/02 00:33:33;;;;;;;17.85;8.02;;;2.60;99.90;;;;;;4982858;28;20121;-72
2021/03/02 00:35:58;;;;;;;20.60;7.97;;;2.50;99.90;;;;;;4988768;28;20036;-72
2021/03/02 00:38:24;;;;;;;18.95;8.68;;;2.50;99.90;;;;;;4979735;28;20030;-72
2021/03/02 00:40:51;;;;;;;17.25;7.82;;;2.50;99.90;;;;;;4982412;28;20480;-72
2021/03/02 00:43:17;;;;;;;23.42;9.60;;;2.40;99.90;;;;;;4986492;28;20026;-72
2021/03/02 00:45:42;;;;;;;18.80;8.48;;;2.40;99.90;;;;;;4987366;28;20100;-72
2021/03/02 00:48:09;;;;;;;20.05;8.75;;;2.40;99.90;;;;;;4995129;28;20032;-72
2021/03/02 00:50:34;;;;;;;15.05;7.60;;;2.40;99.90;;;;;;4990756;28;20037;-72
2021/03/02 00:53:00;;;;;;;16.98;8.40;;;2.40;99.90;;;;;;4987506;28;20462;-73
2021/03/02 00:55:25;;;;;;;17.48;8.05;;;2.40;99.90;;;;;;4992558;28;20462;-72
2021/03/02 00:57:51;;;;;;;21.58;8.10;;;2.40;99.90;;;;;;4983355;28;20726;-73
2021/03/02 01:00:17;;;;;;;23.00;8.55;;;2.20;99.90;;;;;;4983023;28;20041;-72
2021/03/02 01:02:42;;;;;;;17.27;7.75;;;2.10;99.90;;;;;;4984792;28;20051;-72
2021/03/02 01:05:08;;;;;;;18.95;8.27;;;2.20;99.90;;;;;;4982304;28;20034;-72
2021/03/02 01:07:34;;;;;;;22.02;8.13;;;2.30;99.90;;;;;;4983714;28;20058;-72
2021/03/02 01:10:01;;;;;;;23.30;8.10;;;2.30;99.90;;;;;;4986569;28;20105;-72
2021/03/02 01:12:28;;;;;;;19.67;8.23;;;2.30;99.90;;;;;;4982478;28;20069;-72
2021/03/02 01:14:55;;;;;;;17.55;8.30;;;2.20;99.90;;;;;;4985119;28;20045;-72
2021/03/02 01:17:20;;;;;;;19.60;8.55;;;2.10;99.90;;;;;;4984400;28;20027;-73
2021/03/02 01:19:46;;;;;;;17.15;8.10;;;2.00;99.90;;;;;;4994768;28;20400;-73
2021/03/02 01:22:11;;;;;;;20.00;8.00;;;2.10;99.90;;;;;;4984157;28;20026;-72
2021/03/02 01:24:37;;;;;;;21.50;8.80;;;2.20;99.90;;;;;;4988803;28;20456;-72
2021/03/02 01:27:03;;;;;;;18.23;8.25;;;2.20;99.90;;;;;;4980709;28;20080;-72
2021/03/02 01:29:29;;;;;;;18.75;8.90;;;2.10;99.90;;;;;;4981799;28;20030;-72
2021/03/02 01:31:54;;;;;;;21.48;8.40;;;2.00;99.90;;;;;;4985371;28;20030;-72
2021/03/02 01:34:20;;;;;;;22.98;8.75;;;2.10;99.90;;;;;;4982965;28;20038;-72
2021/03/02 01:36:45;;;;;;;20.50;8.07;;;2.00;99.90;;;;;;4983401;28;20030;-72
2021/03/02 01:39:11;;;;;;;15.02;8.10;;;2.10;99.90;;;;;;4982205;28;20109;-72
2021/03/02 01:41:36;;;;;;;17.42;8.50;;;2.10;99.90;;;;;;4982351;28;20030;-72
2021/03/02 01:44:02;;;;;;;23.58;8.55;;;2.00;99.90;;;;;;4986158;28;20034;-72
2021/03/02 01:46:27;;;;;;;17.38;7.93;;;1.90;99.90;;;;;;4984876;28;20097;-72
2021/03/02 01:48:54;;;;;;;17.90;7.72;;;1.90;99.90;;;;;;4980929;28;20313;-72
2021/03/02 01:51:19;;;;;;;16.33;7.70;;;1.90;99.90;;;;;;4989073;28;20014;-72
2021/03/02 01:53:45;;;;;;;17.30;7.97;;;2.00;99.90;;;;;;4981376;28;20042;-72
2021/03/02 01:56:11;;;;;;;20.92;7.53;;;2.00;99.90;;;;;;4966310;28;20033;-72
2021/03/02 01:58:36;;;;;;;17.05;8.13;;;1.90;99.90;;;;;;4978877;28;20022;-72
2021/03/02 02:01:07;;;;;;;18.85;8.18;;;1.90;99.90;;;;;;4983819;28;20037;-72
2021/03/02 02:03:46;;;;;;;19.73;8.25;;;1.80;99.90;;;;;;4983786;28;20583;-72
2021/03/02 02:06:40;;;;;;;17.75;7.68;;;2.00;99.90;;;;;;4986575;28;20038;-72
2021/03/02 02:09:39;;;;;;;16.83;7.78;;;2.00;99.90;;;;;;4984949;28;20034;-72
2021/03/02 02:12:09;;;;;;;17.27;7.70;;;2.00;99.90;;;;;;4979999;28;20039;-72
2021/03/02 02:14:42;;;;;;;15.60;7.82;;;1.70;99.90;;;;;;4965604;28;20400;-72
2021/03/02 02:17:21;;;;;;;16.15;7.22;;;1.80;99.90;;;;;;4986694;28;20180;-72
2021/03/02 02:19:54;;;;;;;15.70;7.30;;;1.80;99.90;;;;;;4981907;28;20038;-72
2021/03/02 02:22:20;;;;;;;20.02;7.80;;;1.70;99.90;;;;;;4982180;28;20039;-72
2021/03/02 02:25:08;;;;;;;20.95;8.30;;;1.70;99.90;;;;;;4983042;28;20030;-72
2021/03/02 02:27:34;;;;;;;19.13;7.13;;;1.60;99.90;;;;;;4975182;28;20033;-73
2021/03/02 02:30:01;;;;;;;16.98;8.15;;;1.60;99.90;;;;;;4980014;28;20018;-74
2021/03/02 02:32:28;;;;;;;22.23;8.32;;;1.60;99.90;;;;;;4977772;28;20129;-74
2021/03/02 02:34:56;;;;;;;21.63;8.57;;;1.60;99.90;;;;;;4987147;28;20026;-73
2021/03/02 02:37:24;;;;;;;17.63;7.70;;;1.60;99.90;;;;;;4986323;28;20080;-74
2021/03/02 02:39:50;;;;;;;18.50;7.25;;;1.60;99.90;;;;;;4984282;28;20026;-73
2021/03/02 02:42:16;;;;;;;17.92;7.95;;;1.60;99.90;;;;;;4985622;28;20387;-73
2021/03/02 02:44:42;;;;;;;16.05;7.13;;;1.60;99.90;;;;;;4977719;28;20101;-73
2021/03/02 02:47:08;;;;;;;17.52;7.72;;;1.70;99.90;;;;;;4983836;28;20039;-74
2021/03/02 02:49:35;;;;;;;18.17;7.63;;;1.60;99.90;;;;;;4987626;28;20041;-73
2021/03/02 02:52:01;;;;;;;18.38;8.25;;;1.60;99.90;;;;;;4982451;28;20176;-73
2021/03/02 02:54:27;;;;;;;21.13;8.00;;;1.60;99.90;;;;;;4980301;28;20072;-74
2021/03/02 02:56:55;;;;;;;20.15;7.70;;;1.50;99.90;;;;;;4985684;28;20026;-73
2021/03/02 02:59:32;;;;;;;20.58;7.93;;;1.60;99.90;;;;;;4981774;28;20057;-74
2021/03/02 03:02:03;;;;;;;14.68;7.10;;;1.60;99.90;;;;;;4980654;28;20149;-74
2021/03/02 03:04:33;;;;;;;18.35;7.60;;;1.60;99.90;;;;;;4980189;28;20578;-73
2021/03/02 03:07:02;;;;;;;17.88;7.32;;;1.50;99.90;;;;;;4983979;28;20376;-73
2021/03/02 03:09:29;;;;;;;16.65;7.75;;;1.50;99.90;;;;;;4986654;28;20048;-73
2021/03/02 03:12:00;;;;;;;18.48;8.55;;;1.50;99.90;;;;;;4992905;28;20040;-73
2021/03/02 03:14:27;;;;;;;24.65;7.93;;;1.60;99.90;;;;;;4991589;28;20026;-74
2021/03/02 03:16:54;;;;;;;18.02;7.60;;;1.50;99.90;;;;;;4990508;28;20342;-73
2021/03/02 03:19:25;;;;;;;20.25;7.47;;;1.40;99.90;;;;;;4998683;28;20030;-74
2021/03/02 03:21:55;;;;;;;18.00;7.65;;;1.50;99.90;;;;;;4988472;28;20723;-73
2021/03/02 03:24:22;;;;;;;18.52;8.02;;;1.40;99.90;;;;;;4986291;28;20117;-73
2021/03/02 03:26:51;;;;;;;16.98;7.35;;;1.50;99.90;;;;;;4992098;28;20121;-73
2021/03/02 03:29:18;;;;;;;18.77;8.48;;;1.40;99.90;;;;;;4989169;28;20061;-74
2021/03/02 03:31:45;;;;;;;19.27;8.32;;;1.40;99.90;;;;;;4987621;28;20027;-73
2021/03/02 03:34:14;;;;;;;17.60;8.25;;;1.40;99.90;;;;;;4987712;28;20030;-73
2021/03/02 03:36:41;;;;;;;16.05;6.53;;;1.40;99.90;;;;;;4986966;28;20034;-73
2021/03/02 03:39:07;;;;;;;17.42;8.07;;;1.40;99.90;;;;;;4986733;28;20125;-73
2021/03/02 03:41:33;;;;;;;21.08;8.93;;;1.30;99.90;;;;;;4987466;28;20125;-73
2021/03/02 03:43:59;;;;;;;16.20;7.97;;;1.30;99.90;;;;;;4985078;28;20065;-74
2021/03/02 03:46:25;;;;;;;18.90;7.93;;;1.50;99.90;;;;;;4986967;28;20030;-74
2021/03/02 03:48:52;;;;;;;15.38;7.68;;;1.50;99.90;;;;;;4983329;28;20613;-73
2021/03/02 03:51:18;;;;;;;15.48;7.70;;;1.50;99.90;;;;;;4984857;28;20022;-73
2021/03/02 03:53:44;;;;;;;18.02;7.80;;;1.60;99.90;;;;;;4985078;28;20049;-73
2021/03/02 03:56:11;;;;;;;20.55;8.45;;;1.40;99.90;;;;;;4984697;28;20085;-74
2021/03/02 03:58:38;;;;;;;20.73;8.55;;;1.40;99.90;;;;;;4983350;28;20026;-73
2021/03/02 04:01:05;;;;;;;17.45;8.27;;;1.40;99.90;;;;;;4987051;28;20035;-73
2021/03/02 04:03:32;;;;;;;17.23;7.50;;;1.40;99.90;;;;;;4987843;28;20026;-73
2021/03/02 04:06:00;;;;;;;17.17;7.90;;;1.30;99.90;;;;;;4983281;28;20084;-74
2021/03/02 04:08:27;;;;;;;18.60;7.57;;;1.20;99.90;;;;;;4986422;28;20057;-73
2021/03/02 04:10:52;;;;;;;19.52;8.40;;;1.30;99.90;;;;;;4985843;28;20030;-73
2021/03/02 04:13:18;;;;;;;22.60;8.35;;;1.30;99.90;;;;;;4980610;28;20027;-73
2021/03/02 04:15:44;;;;;;;17.00;8.02;;;1.40;99.90;;;;;;4984044;28;20557;-73
2021/03/02 04:18:12;;;;;;;22.38;8.35;;;1.60;99.90;;;;;;4982003;28;20030;-73
2021/03/02 04:20:39;;;;;;;24.30;7.88;;;1.70;99.90;;;;;;4984497;28;20028;-73
2021/03/02 04:23:05;;;;;;;18.30;7.95;;;1.70;99.90;;;;;;4982348;28;20069;-74
2021/03/02 04:25:31;;;;;;;19.08;8.32;;;1.70;99.90;;;;;;4983211;28;20031;-73
2021/03/02 04:27:58;;;;;;;17.75;8.00;;;1.80;99.90;;;;;;4983217;28;20106;-73
2021/03/02 04:30:24;;;;;;;19.33;8.48;;;1.70;99.90;;;;;;4983750;28;20018;-74
2021/03/02 04:32:49;;;;;;;16.23;6.95;;;1.70;99.90;;;;;;4990173;28;20069;-73
2021/03/02 04:35:15;;;;;;;22.27;8.05;;;1.60;99.90;;;;;;4984856;28;20505;-73
2021/03/02 04:37:41;;;;;;;19.17;8.48;;;1.60;99.90;;;;;;4981288;28;20038;-73
2021/03/02 04:40:07;;;;;;;21.42;8.50;;;1.60;99.90;;;;;;4981543;28;20577;-73
2021/03/02 04:42:33;;;;;;;19.95;8.32;;;1.70;99.90;;;;;;4980183;28;21531;-74
2021/03/02 04:44:58;;;;;;;22.85;8.43;;;1.70;99.90;;;;;;4981783;28;20065;-74
2021/03/02 04:47:24;;;;;;;20.15;8.93;;;1.90;99.90;;;;;;4988098;28;20033;-73
2021/03/02 04:49:50;;;;;;;21.10;8.85;;;1.90;99.90;;;;;;4983254;28;20027;-73
2021/03/02 04:52:18;;;;;;;21.48;8.65;;;1.90;99.90;;;;;;4987417;28;20042;-73
2021/03/02 04:54:45;;;;;;;18.65;7.88;;;1.90;99.90;;;;;;4983928;28;20033;-73
2021/03/02 04:57:10;;;;;;;21.15;9.27;;;1.90;99.90;;;;;;4986232;28;20026;-74
2021/03/02 04:59:36;;;;;;;29.40;8.65;;;1.80;99.90;;;;;;4985215;28;20033;-74
2021/03/02 05:02:01;;;;;;;23.77;8.85;;;2.00;99.90;;;;;;4982598;28;20168;-73
2021/03/02 05:04:27;;;;;;;21.98;8.95;;;1.90;99.90;;;;;;4983041;28;20037;-74
2021/03/02 05:06:52;;;;;;;25.88;9.00;;;1.90;99.90;;;;;;4981435;28;20038;-74
2021/03/02 05:09:18;;;;;;;21.00;9.55;;;1.80;99.90;;;;;;4985191;28;20105;-73
2021/03/02 05:11:44;;;;;;;21.58;8.57;;;1.80;99.90;;;;;;4988064;28;20385;-73
2021/03/02 05:14:09;;;;;;;19.50;7.35;;;1.80;99.90;;;;;;4987939;28;20507;-73
2021/03/02 05:16:35;;;;;;;28.48;8.85;;;1.60;99.90;;;;;;4983689;28;20031;-73
2021/03/02 05:19:00;;;;;;;19.08;9.27;;;1.60;99.90;;;;;;4986432;28;20388;-74
2021/03/02 05:21:26;;;;;;;26.92;9.40;;;1.70;99.90;;;;;;4982450;28;20160;-73
2021/03/02 05:23:51;;;;;;;21.40;9.73;;;1.80;99.90;;;;;;4986194;28;20030;-73
2021/03/02 05:26:16;;;;;;;22.58;8.68;;;1.70;99.90;;;;;;4980780;28;20109;-73
2021/03/02 05:28:42;;;;;;;25.70;8.85;;;1.80;99.90;;;;;;4984343;28;20027;-74
2021/03/02 05:31:07;;;;;;;20.20;8.40;;;1.80;99.90;;;;;;4980401;28;20481;-73
2021/03/02 05:33:33;;;;;;;21.42;8.85;;;1.70;99.90;;;;;;4975801;28;20117;-73
2021/03/02 05:35:58;;;;;;;19.92;7.45;;;1.70;99.90;;;;;;4979747;28;20033;-73
2021/03/02 05:38:24;;;;;;;30.83;12.23;;;1.90;99.90;;;;;;4982804;28;20022;-73
2021/03/02 05:40:49;;;;;;;21.00;8.10;;;1.60;99.90;;;;;;4983623;28;20034;-74
2021/03/02 05:43:15;;;;;;;15.32;7.90;;;1.60;99.90;;;;;;4984424;28;20034;-73
2021/03/02 05:45:43;;;;;;;23.52;8.13;;;1.70;99.90;;;;;;4986994;28;20396;-72
2021/03/02 05:48:10;;;;;;;20.55;8.48;;;1.70;99.90;;;;;;4983855;28;20025;-73
2021/03/02 05:50:36;;;;;;;25.52;8.32;;;1.70;99.90;;;;;;4982519;28;20115;-73
2021/03/02 05:53:02;;;;;;;19.55;7.30;;;1.60;99.90;;;;;;4970946;28;20067;-73
2021/03/02 05:55:29;;;;;;;21.98;7.70;;;1.70;99.90;;;;;;4966074;28;20027;-73
2021/03/02 05:57:56;;;;;;;19.60;7.63;;;1.60;99.90;;;;;;4965315;28;20109;-73
2021/03/02 06:00:22;;;;;;;23.27;8.13;;;1.60;99.90;;;;;;4972400;28;20023;-73
2021/03/02 06:02:48;;;;;;;18.42;7.53;;;1.70;99.90;;;;;;4959414;28;20078;-73
2021/03/02 06:05:14;;;;;;;23.63;7.88;;;1.60;99.90;;;;;;4959446;28;20019;-73
2021/03/02 06:07:39;;;;;;;18.30;7.20;;;1.70;99.90;;;;;;4962517;28;20473;-72
2021/03/02 06:10:05;;;;;;;20.52;7.63;;;1.70;99.90;;;;;;4962657;28;20033;-73
2021/03/02 06:12:58;;;;;;;23.88;7.72;;;1.80;99.90;;;;;;4965290;28;20496;-74
2021/03/02 06:15:28;;;;;;;35.17;10.60;;;1.80;99.90;;;;;;4965758;28;20054;-73
2021/03/02 06:18:16;;;;;;;21.48;8.52;;;1.80;99.90;;;;;;4959042;28;20169;-74
2021/03/02 06:20:42;;;;;;;30.88;9.65;;;1.90;99.90;;;;;;4962928;28;20122;-73
2021/03/02 06:23:21;;;;;;;25.85;9.48;;;1.70;99.90;;;;;;4972513;28;20177;-73
2021/03/02 06:25:47;;;;;;;38.20;10.40;;;1.70;99.90;;;;;;4962421;28;20034;-73
2021/03/02 06:28:13;;;;;;;36.00;11.05;;;1.80;99.90;;;;;;4959712;28;20058;-72
2021/03/02 06:30:38;;;;;;;31.80;9.10;;;1.80;99.90;;;;;;4963842;28;20057;-74
2021/03/02 06:33:04;;;;;;;29.30;8.77;;;1.80;99.90;;;;;;4965029;28;20176;-73
2021/03/02 06:35:35;;;;;;;30.42;9.40;;;1.70;99.90;;;;;;4945409;28;20035;-73
2021/03/02 06:38:01;;;;;;;21.63;8.65;;;1.70;99.90;;;;;;4962371;28;20038;-73
2021/03/02 06:40:45;;;;;;;29.00;9.48;;;1.80;99.90;;;;;;4957651;28;20547;-73
2021/03/02 06:43:34;;;;;;;15.32;7.50;;;1.90;99.90;;;;;;4958277;28;20416;-73
2021/03/02 06:46:02;;;;;;;20.98;7.78;;;1.80;99.90;;;;;;4959130;28;20050;-73
2021/03/02 06:48:30;;;;;;;20.13;7.32;;;1.80;99.90;;;;;;4961872;28;20027;-73
2021/03/02 06:50:56;;;;;;;28.67;8.07;;;1.90;99.90;;;;;;4966324;28;20030;-73
2021/03/02 06:53:25;;;;;;;17.23;7.32;;;1.90;99.90;;;;;;4976597;28;20088;-72
2021/03/02 06:55:51;;;;;;;19.73;7.50;;;1.80;99.90;;;;;;4986379;28;20031;-73
2021/03/02 06:58:24;;;;;;;18.80;8.55;;;2.10;99.90;;;;;;4986533;28;20088;-72
2021/03/02 07:00:51;;;;;;;24.55;7.30;;;2.00;99.90;;;;;;4981705;28;20138;-74
2021/03/02 07:03:34;;;;;;;23.33;7.38;;;2.00;99.90;;;;;;4982897;28;20053;-73
2021/03/02 07:06:06;;;;;;;18.52;6.32;;;2.20;99.90;;;;;;4987395;28;20427;-74
2021/03/02 07:08:32;;;;;;;13.52;6.00;;;2.10;99.90;;;;;;4983677;28;20026;-74
2021/03/02 07:11:00;;;;;;;25.83;6.70;;;2.20;99.90;;;;;;4985974;28;20056;-75
2021/03/02 07:13:30;;;;;;;16.08;6.70;;;2.30;99.90;;;;;;4989018;28;20084;-73
2021/03/02 07:15:55;;;;;;;16.08;6.38;;;2.10;99.90;;;;;;4988241;28;20028;-74
2021/03/02 07:18:24;;;;;;;17.70;6.88;;;2.10;99.90;;;;;;4988124;28;20034;-74
2021/03/02 07:20:50;;;;;;;22.92;7.00;;;2.20;99.90;;;;;;4988871;28;20730;-73
2021/03/02 07:23:27;;;;;;;16.58;6.55;;;2.30;99.90;;;;;;4985250;28;20058;-73
2021/03/02 07:25:55;;;;;;;23.90;6.90;;;2.10;99.90;;;;;;4986271;28;20030;-75
2021/03/02 07:28:30;;;;;;;23.92;8.15;;;2.20;99.90;;;;;;4991480;28;20026;-76
2021/03/02 07:30:56;;;;;;;18.63;7.32;;;2.30;99.90;;;;;;4985667;28;20113;-87
2021/03/02 07:33:21;;;;;;;21.23;8.05;;;2.30;99.90;;;;;;4983956;28;20113;-76
2021/03/02 07:35:48;;;;;;;26.92;8.68;;;2.30;99.90;;;;;;4986371;28;20453;-77
2021/03/02 07:38:21;;;;;;;21.83;7.43;;;2.40;99.90;;;;;;4987377;28;20503;-78
2021/03/02 07:40:48;;;;;;;31.85;10.27;;;2.50;99.90;;;;;;4984143;28;20062;-77
2021/03/02 07:43:23;;;;;;;41.97;9.80;;;2.60;99.90;;;;;;4987799;28;20034;-74
2021/03/02 07:45:49;;;;;;;37.22;11.60;;;2.50;99.90;;;;;;4986817;28;20076;-73
2021/03/02 07:48:36;;;;;;;32.90;12.07;;;2.50;99.90;;;;;;4987509;28;20022;-72
2021/03/02 07:51:13;;;;;;;49.67;12.88;;;2.40;99.90;;;;;;4987173;28;20038;-73
2021/03/02 07:53:39;;;;;;;43.25;12.80;;;2.50;99.90;;;;;;4984465;28;20046;-72
2021/03/02 07:56:19;;;;;;;48.25;13.10;;;2.60;99.90;;;;;;4984585;28;21849;-72
2021/03/02 07:58:58;;;;;;;42.65;12.32;;;2.70;99.90;;;;;;4988295;28;20034;-73
2021/03/02 08:01:24;;;;;;;44.65;12.43;;;2.80;99.90;;;;;;4987644;28;22037;-73
2021/03/02 08:03:50;;;;;;;32.25;12.65;;;2.80;99.90;;;;;;4983706;28;20121;-72
2021/03/02 08:06:21;;;;;;;53.45;13.13;;;2.80;99.90;;;;;;4984635;28;20615;-72
2021/03/02 08:08:48;;;;;;;36.92;11.95;;;2.80;99.90;;;;;;4988358;28;20065;-75
2021/03/02 08:11:30;;;;;;;35.28;11.63;;;3.00;99.90;;;;;;4984731;28;20041;-72
2021/03/02 08:13:56;;;;;;;30.23;10.32;;;3.10;99.90;;;;;;4987604;28;20022;-72
2021/03/02 08:16:54;;;;;;;28.08;9.02;;;3.20;99.90;;;;;;4986924;28;20074;-75
2021/03/02 08:19:44;;;;;;;33.85;10.40;;;3.20;99.90;;;;;;4940660;28;20172;-73
2021/03/02 08:22:19;;;;;;;26.23;9.27;;;3.10;99.90;;;;;;4988015;28;20034;-74
2021/03/02 08:24:52;;;;;;;28.85;9.93;;;3.10;99.90;;;;;;4987383;28;20030;-76
2021/03/02 08:27:42;;;;;;;18.63;8.50;;;3.20;99.90;;;;;;4987173;28;20022;-73
2021/03/02 08:30:10;;;;;;;21.13;9.02;;;3.30;99.90;;;;;;4986205;28;20479;-74
2021/03/02 08:32:37;;;;;;;24.02;8.77;;;3.40;99.90;;;;;;4985204;28;20046;-73
2021/03/02 08:35:11;;;;;;;25.92;9.20;;;3.40;99.90;;;;;;4986073;28;20030;-73
2021/03/02 08:37:39;;;;;;;25.58;9.40;;;3.50;99.90;;;;;;4985978;28;20483;-73
2021/03/02 08:40:06;;;;;;;28.73;9.63;;;3.50;99.90;;;;;;4988011;28;20026;-73
2021/03/02 08:42:31;;;;;;;26.90;9.68;;;3.60;99.90;;;;;;4984921;28;20022;-73
2021/03/02 08:45:08;;;;;;;22.05;9.80;;;3.60;99.90;;;;;;4986697;28;20025;-73
2021/03/02 08:47:35;;;;;;;26.15;10.35;;;3.80;99.90;;;;;;4985507;28;20097;-73
2021/03/02 08:50:03;;;;;;;34.35;10.32;;;3.80;99.90;;;;;;4984289;28;20125;-73
2021/03/02 08:52:40;;;;;;;29.42;10.45;;;3.80;99.90;;;;;;4967051;28;21128;-72
2021/03/02 08:55:07;;;;;;;31.15;11.35;;;3.80;99.90;;;;;;4986500;28;20065;-72
2021/03/02 08:57:43;;;;;;;26.10;10.77;;;3.90;99.90;;;;;;4985642;28;20030;-72
2021/03/02 09:00:16;;;;;;;24.98;11.15;;;4.20;99.90;;;;;;4987270;28;20669;-74
2021/03/02 09:02:45;;;;;;;24.25;11.35;;;4.50;99.90;;;;;;4986273;28;20040;-73
2021/03/02 09:05:17;;;;;;;27.13;11.27;;;4.40;99.90;;;;;;4986554;28;20097;-72
2021/03/02 09:08:05;;;;;;;26.63;11.77;;;4.30;99.90;;;;;;4987331;28;20445;-73
2021/03/02 09:10:31;;;;;;;28.88;12.43;;;4.30;99.90;;;;;;4987581;28;20121;-72
2021/03/02 09:12:57;;;;;;;25.05;11.00;;;4.20;99.90;;;;;;4986206;28;20114;-71
2021/03/02 09:15:39;;;;;;;26.95;10.75;;;4.40;99.90;;;;;;4987152;28;20425;-71
2021/03/02 09:18:17;;;;;;;29.60;13.38;;;4.50;99.90;;;;;;4985530;28;20041;-73
2021/03/02 09:20:50;;;;;;;33.15;13.38;;;4.60;99.90;;;;;;4987214;28;20057;-70
2021/03/02 09:23:15;;;;;;;33.78;12.60;;;4.60;99.90;;;;;;4987101;28;20528;-73
2021/03/02 09:25:41;;;;;;;31.17;13.05;;;4.90;99.90;;;;;;4987095;28;20161;-72
2021/03/02 09:28:17;;;;;;;29.25;12.05;;;4.90;99.90;;;;;;4986574;28;20022;-73
2021/03/02 09:30:43;;;;;;;31.05;13.18;;;4.90;99.90;;;;;;4986967;28;20038;-71
2021/03/02 09:33:11;;;;;;;36.22;14.05;;;5.10;99.90;;;;;;4987815;28;20030;-72
2021/03/02 09:35:37;;;;;;;39.85;13.88;;;5.10;99.90;;;;;;4987216;28;20034;-72
2021/03/02 09:38:03;;;;;;;40.05;16.67;;;5.30;99.90;;;;;;4985412;28;20031;-72
2021/03/02 09:41:07;;;;;;;39.25;16.65;;;5.60;99.90;;;;;;4985721;28;20045;-71
2021/03/02 09:43:40;;;;;;;42.90;16.75;;;5.70;99.90;;;;;;4968766;28;20069;-71
2021/03/02 09:46:06;;;;;;;43.25;17.30;;;5.50;99.90;;;;;;4985249;28;20030;-71
2021/03/02 09:48:53;;;;;;;46.45;14.25;;;5.70;99.90;;;;;;4986439;28;20634;-72
2021/03/02 09:51:32;;;;;;;35.88;14.05;;;5.70;99.90;;;;;;4987486;28;20057;-72
2021/03/02 09:54:16;;;;;;;28.63;13.50;;;5.80;99.90;;;;;;4998682;28;20060;-71
2021/03/02 09:56:56;;;;;;;35.13;13.65;;;5.90;99.90;;;;;;4988847;28;20034;-71
2021/03/02 09:59:24;;;;;;;33.45;13.90;;;6.10;99.90;;;;;;4985640;28;20038;-71
2021/03/02 10:01:51;;;;;;;31.33;14.43;;;6.20;99.90;;;;;;4983253;28;20053;-71
2021/03/02 10:04:17;;;;;;;37.90;13.93;;;6.30;99.90;;;;;;4989763;28;20491;-74
2021/03/02 10:06:43;;;;;;;37.38;14.18;;;6.50;99.90;;;;;;4990607;28;20038;-72
2021/03/02 10:09:25;;;;;;;36.75;15.50;;;6.60;99.90;;;;;;4989467;28;20022;-72
2021/03/02 10:12:07;;;;;;;36.08;15.07;;;6.80;99.90;;;;;;4982324;28;20022;-71
2021/03/02 10:14:40;;;;;;;35.53;13.27;;;7.00;99.90;;;;;;4986983;28;20030;-71
2021/03/02 10:17:06;;;;;;;29.00;13.35;;;7.10;99.90;;;;;;4981340;28;20081;-72
2021/03/02 10:19:32;;;;;;;28.75;13.35;;;7.20;99.90;;;;;;4982167;28;20114;-71
2021/03/02 10:22:03;;;;;;;35.10;14.45;;;7.50;99.90;;;;;;4985879;28;20042;-71
2021/03/02 10:24:40;;;;;;;32.33;13.48;;;7.60;99.90;;;;;;4987444;28;20057;-71
2021/03/02 10:27:15;;;;;;;31.48;13.88;;;7.80;99.90;;;;;;4986714;28;20038;-70
2021/03/02 10:29:41;;;;;;;36.22;12.90;;;8.00;99.90;;;;;;4987284;28;20567;-72
2021/03/02 10:32:08;;;;;;;34.50;13.15;;;8.20;99.90;;;;;;4990331;28;20030;-72
2021/03/02 10:34:36;;;;;;;29.33;13.30;;;8.20;99.90;;;;;;4988300;28;20117;-72
2021/03/02 10:37:06;;;;;;;27.00;12.82;;;8.40;99.90;;;;;;4986809;28;20038;-73
2021/03/02 10:39:32;;;;;;;27.85;12.18;;;8.50;99.90;;;;;;4991764;28;20030;-73
2021/03/02 10:41:58;;;;;;;33.30;13.05;;;8.70;99.90;;;;;;4988308;28;20560;-74
2021/03/02 10:44:24;;;;;;;33.88;12.85;;;9.00;99.00;;;;;;4992809;28;20034;-75
2021/03/02 10:46:49;;;;;;;30.65;12.70;;;9.10;98.70;;;;;;4988042;28;20089;-75
2021/03/02 10:49:15;;;;;;;30.60;12.75;;;9.10;97.70;;;;;;4989127;28;20489;-78
2021/03/02 10:51:41;;;;;;;23.73;11.52;;;9.20;98.90;;;;;;4992547;28;20026;-78
2021/03/02 10:54:08;;;;;;;28.20;12.80;;;9.30;97.90;;;;;;4983385;28;20046;-75
2021/03/02 10:56:34;;;;;;;29.50;12.90;;;9.50;96.60;;;;;;4987143;28;20049;-73
2021/03/02 10:58:59;;;;;;;27.40;12.90;;;9.60;96.60;;;;;;4986923;28;20489;-73
2021/03/02 11:01:25;;;;;;;24.88;12.15;;;9.70;95.70;;;;;;4988313;28;20103;-74
2021/03/02 11:03:52;;;;;;;33.17;13.43;;;9.90;94.90;;;;;;4987240;28;20045;-72
2021/03/02 11:06:19;;;;;;;30.30;12.27;;;10.10;94.00;;;;;;4989268;28;20469;-73
2021/03/02 11:08:45;;;;;;;32.13;13.07;;;10.20;94.40;;;;;;4989720;28;20050;-73
2021/03/02 11:11:12;;;;;;;27.33;13.30;;;10.40;93.30;;;;;;5000366;28;20049;-72
2021/03/02 11:13:39;;;;;;;26.58;13.30;;;10.70;92.50;;;;;;4986596;28;20599;-73
2021/03/02 11:16:05;;;;;;;29.45;13.98;;;10.90;91.80;;;;;;4996479;28;20041;-72
2021/03/02 11:18:30;;;;;;;26.60;13.43;;;11.10;90.30;;;;;;4994802;28;20028;-72
2021/03/02 11:20:56;;;;;;;33.00;13.90;;;11.30;89.30;;;;;;4988000;28;20034;-72
2021/03/02 11:23:21;;;;;;;27.73;12.70;;;11.50;88.70;;;;;;4971959;28;20019;-73
2021/03/02 11:25:47;;;;;;;37.92;13.68;;;11.80;85.90;;;;;;4990719;28;20532;-73
2021/03/02 11:28:13;;;;;;;24.98;12.82;;;11.80;88.40;;;;;;4990064;28;20038;-72
2021/03/02 11:30:39;;;;;;;31.95;13.07;;;12.10;84.70;;;;;;4992311;28;20026;-74
2021/03/02 11:33:05;;;;;;;28.85;13.45;;;12.30;84.80;;;;;;4992007;28;20028;-73
2021/03/02 11:35:31;;;;;;;28.83;12.63;;;12.50;81.90;;;;;;4995536;28;20034;-72
2021/03/02 11:37:57;;;;;;;30.95;13.45;;;12.70;81.50;;;;;;4996640;28;20384;-73
2021/03/02 11:40:24;;;;;;;29.50;13.95;;;13.00;78.50;;;;;;4998176;28;20764;-74
2021/03/02 11:42:52;;;;;;;32.30;14.32;;;13.20;76.00;;;;;;4996790;28;20026;-73
2021/03/02 11:45:19;;;;;;;35.35;14.73;;;13.30;75.90;;;;;;4992437;28;20034;-74
2021/03/02 11:47:44;;;;;;;39.15;15.82;;;13.50;74.90;;;;;;4989204;28;20022;-73
2021/03/02 11:50:10;;;;;;;35.95;15.35;;;13.60;72.70;;;;;;4989945;28;20040;-72
2021/03/02 11:52:36;;;;;;;32.50;15.80;;;13.80;73.00;;;;;;4990338;28;20444;-73
2021/03/02 11:55:03;;;;;;;32.03;15.43;;;14.10;71.80;;;;;;4999825;28;20018;-73
2021/03/02 11:57:28;;;;;;;38.42;16.30;;;14.60;70.00;;;;;;4987891;28;20112;-74
2021/03/02 11:59:55;;;;;;;35.28;16.08;;;15.10;68.10;;;;;;4991023;28;20122;-73
2021/03/02 12:02:20;;;;;;;31.88;15.50;;;15.30;65.00;;;;;;4990182;28;20877;-73
2021/03/02 12:04:46;;;;;;;33.47;14.98;;;15.50;64.10;;;;;;4985662;28;20068;-74
2021/03/02 12:07:11;;;;;;;34.83;16.15;;;15.90;61.80;;;;;;4984612;28;20031;-74
2021/03/02 12:09:37;;;;;;;32.72;14.50;;;16.20;60.50;;;;;;4990633;28;20097;-73
2021/03/02 12:12:04;;;;;;;33.63;15.73;;;16.30;59.20;;;;;;4989051;28;20114;-74
2021/03/02 12:14:30;;;;;;;34.63;16.27;;;16.60;58.70;;;;;;4989561;28;20098;-74
2021/03/02 12:16:55;;;;;;;30.52;15.27;;;17.00;58.20;;;;;;4988387;28;20129;-72
2021/03/02 12:19:21;;;;;;;29.38;15.70;;;16.80;57.40;;;;;;4990540;28;20444;-71
2021/03/02 12:21:46;;;;;;;35.42;16.10;;;17.10;56.10;;;;;;4992310;28;20067;-71
2021/03/02 12:24:12;;;;;;;32.40;15.75;;;17.10;57.10;;;;;;4997244;28;20391;-72
2021/03/02 12:26:37;;;;;;;31.67;15.32;;;17.10;56.70;;;;;;4994842;28;21128;-73
2021/03/02 12:29:03;;;;;;;29.58;15.25;;;17.40;56.50;;;;;;4990834;28;20064;-71
2021/03/02 12:31:28;;;;;;;32.78;16.33;;;17.90;56.00;;;;;;4989958;28;20109;-72
2021/03/02 12:33:54;;;;;;;32.00;15.27;;;18.10;56.70;;;;;;4995846;28;20104;-72
2021/03/02 12:36:20;;;;;;;27.80;13.63;;;18.30;53.40;;;;;;4989486;28;20026;-72
2021/03/02 12:38:45;;;;;;;31.88;14.95;;;18.60;52.00;;;;;;4988122;28;20038;-72
2021/03/02 12:41:11;;;;;;;28.77;14.95;;;18.50;52.40;;;;;;4990188;28;20397;-71
2021/03/02 12:43:36;;;;;;;31.45;14.93;;;18.80;51.30;;;;;;4989437;28;20097;-86
2021/03/02 12:46:03;;;;;;;25.25;13.73;;;18.70;51.50;;;;;;4990069;28;20060;-74
2021/03/02 12:48:28;;;;;;;28.55;14.35;;;18.60;50.60;;;;;;4989142;28;20033;-75